Flight Track Log - Related Links

Times and Time Zones

All times are in EDT time to prevent confusion due to time zone crossing. See the EJM66 flight status page for this flight to view local times or setup timezone preferences in your user account.

Time Position Orientation Groundspeed Altitude Reporting Facility
EDT Latitude Longitude Course Direction KTS MPH feet Rate Location/Type
Tue 07:11:34 PM 41.9339 -72.6953 204° Southwest 148 170 1,000  Level Boston Center
Tue 07:12:52 PM 41.8650 -72.7369 204° Southwest 245 282 4,300 2,516 Climbing Boston Center
Tue 07:13:07 PM 41.8542 -72.7219 134° Southeast 250 288 4,900 2,509 Climbing Boston Center
Tue 07:13:47 PM 41.8389 -72.6525 106° East 312 359 6,600 2,656 Climbing Boston Center
Tue 07:14:08 PM 41.8483 -72.6103 73° East 313 360 7,600 2,262 Climbing Boston Center
Tue 07:14:48 PM 41.8861 -72.5569 46° Northeast 327 376 8,900 1,377 Climbing Boston Center
Tue 07:15:09 PM 41.9114 -72.5225 45° Northeast 332 382 9,000 100 Climbing Boston Center
Tue 07:15:48 PM 41.9514 -72.4558 51° Northeast 338 389 9,000  Level Boston Center
Tue 07:16:49 PM 42.0089 -72.3608 51° Northeast 331 381 9,000  Level Boston Center
Tue 07:17:13 PM 42.0319 -72.3219 51° Northeast 334 384 9,000  Level Boston Center
Tue 07:17:43 PM 42.0553 -72.2789 54° Northeast 330 380 9,000  Level Boston Center
Tue 07:18:13 PM 42.0881 -72.2247 51° Northeast 333 383 9,000  Level Boston Center
Tue 07:18:44 PM 42.1167 -72.1733 53° Northeast 328 377 9,000  Level Boston Center
Tue 07:19:17 PM 42.1478 -72.1192 52° Northeast 332 382 9,000 -333 Level Boston Center
Tue 07:19:38 PM 42.1656 -72.0889 52° Northeast 332 382 8,700 -1,500 Descending Boston Center
Tue 07:20:17 PM 42.2044 -72.0206 52° Northeast 332 382 7,500 -1,778 Descending Boston Center
Tue 07:20:32 PM 42.2172 -72.0000 50° Northeast 332 382 7,100 -1,672 Descending Boston Center
Tue 07:21:18 PM 42.2581 -71.9267 53° Northeast 320 368 5,800 -1,431 Descending Boston Center
Tue 07:22:21 PM 42.3103 -71.8353 52° Northeast 312 359 4,500 -864 Descending Boston Center
Tue 07:23:23 PM 42.3650 -71.7367 53° Northeast 308 354 4,000 -244 Descending Boston Center
Tue 07:24:24 PM 42.4156 -71.6444 53° Northeast 308 354 4,000 -484 Level Boston Center
Tue 07:25:27 PM 42.4681 -71.5539 52° Northeast 307 353 3,000 -488 Descending Boston Center
Tue 07:26:27 PM 42.5169 -71.4533 57° Northeast 302 348 3,000 -446 Level Boston Center
Tue 07:27:28 PM 42.5411 -71.3519 72° East 290 334 2,100 -726 Descending Boston Center
Tue 07:28:31 PM 42.5186 -71.2803 113° Southeast 180 207 1,500 -774 Descending Boston Center
Tue 07:29:32 PM 42.4872 -71.2714 168° South 118 136 500 -541 Descending Boston Center
Tue 07:30:33 PM 42.4603 -71.2875 204° Southwest 111 128 400 -98 Descending Boston Center
Tue 07:32:00 PM 42.4667 -71.2833 200° South  Level FlightAware Approximate

Login

Don't have an account? Register now (free) for customized features, flight alerts, and more!